Time;durP1;ratioP1;P1;durP2;ratioP2;P2;SDS_P1;SDS_P2;PMS_P1;PMS_P2;Temp;Humidity;BMP_temperature;BMP_pressure;BME280_temperature;BME280_humidity;BME280_pressure;Samples;Min_cycle;Max_cycle;Signal;HPM_P1;HPM_P2
2021/10/08 00:00:35;;;;;;;1.30;0.63;;;;;;;30.15;22.98;94796.09;5073128;28;20366;-46
2021/10/08 00:03:02;;;;;;;1.63;0.80;;;;;;;30.50;22.49;94801.13;5073468;28;20048;-46
2021/10/08 00:05:29;;;;;;;1.33;0.70;;;;;;;30.76;22.05;94798.91;5073360;28;20048;-46
2021/10/08 00:07:58;;;;;;;0.93;0.60;;;;;;;30.11;22.62;94803.47;5073726;28;20044;-46
2021/10/08 00:10:25;;;;;;;1.30;0.50;;;;;;;30.31;22.48;94793.63;5073624;28;20040;-47
2021/10/08 00:12:52;;;;;;;0.90;0.60;;;;;;;30.41;22.31;94798.13;5073652;28;20056;-46
2021/10/08 00:15:20;;;;;;;1.17;0.63;;;;;;;30.43;22.25;94793.09;5073529;28;20135;-47
2021/10/08 00:17:48;;;;;;;0.95;0.70;;;;;;;30.76;21.92;94794.28;5056349;28;20052;-46
2021/10/08 00:20:16;;;;;;;0.82;0.50;;;;;;;30.41;22.39;94792.72;5073445;28;20052;-47
2021/10/08 00:22:43;;;;;;;0.90;0.50;;;;;;;29.90;23.17;94797.06;5073617;28;20358;-50
2021/10/08 00:25:10;;;;;;;1.00;0.60;;;;;;;30.18;22.60;94796.06;5073058;28;20063;-47
2021/10/08 00:27:37;;;;;;;0.80;0.50;;;;;;;30.05;22.67;94793.13;5061886;28;20466;-47
2021/10/08 00:30:05;;;;;;;0.80;0.57;;;;;;;30.45;22.18;94792.69;5050617;28;20041;-46
2021/10/08 00:32:32;;;;;;;0.90;0.60;;;;;;;30.11;22.59;94781.91;5053295;28;20041;-47
2021/10/08 00:34:59;;;;;;;1.90;0.70;;;;;;;30.34;22.45;94782.03;5066096;28;20055;-47
2021/10/08 00:37:27;;;;;;;0.88;0.50;;;;;;;30.52;22.04;94777.19;5073522;28;20055;-46
2021/10/08 00:39:54;;;;;;;0.70;0.50;;;;;;;30.36;22.19;94775.06;5055760;28;20052;-47
2021/10/08 00:42:26;;;;;;;1.25;0.60;;;;;;;30.36;22.19;94771.59;5073622;28;20060;-47
2021/10/08 00:44:53;;;;;;;0.80;0.50;;;;;;;30.15;22.55;94769.13;5060878;28;20048;-48
2021/10/08 00:47:20;;;;;;;1.00;0.50;;;;;;;29.98;22.87;94779.69;5055393;28;20057;-48
2021/10/08 00:49:48;;;;;;;1.00;0.50;;;;;;;30.15;22.47;94769.13;5055825;28;20056;-46
2021/10/08 00:52:15;;;;;;;0.85;0.40;;;;;;;30.38;22.26;94785.44;5057053;28;20040;-47
2021/10/08 00:54:42;;;;;;;1.10;0.60;;;;;;;30.45;22.22;94771.09;5055478;28;20049;-47
2021/10/08 00:57:09;;;;;;;2.35;0.70;;;;;;;30.17;22.37;94767.56;5055928;28;20044;-46
2021/10/08 00:59:36;;;;;;;0.98;0.60;;;;;;;30.42;22.21;94775.38;5056252;28;20364;-47
2021/10/08 01:02:05;;;;;;;1.15;0.50;;;;;;;30.42;22.20;94782.69;5056601;28;20061;-45
2021/10/08 01:04:33;;;;;;;0.70;0.47;;;;;;;30.80;21.84;94780.72;5064733;28;20047;-46
2021/10/08 01:07:00;;;;;;;1.63;0.60;;;;;;;30.21;22.58;94770.25;5055626;28;20045;-48
2021/10/08 01:09:27;;;;;;;0.50;0.40;;;;;;;30.01;22.74;94770.81;5056728;28;20056;-46
2021/10/08 01:11:54;;;;;;;0.80;0.40;;;;;;;29.90;22.93;94758.59;5056739;28;20048;-47
2021/10/08 01:14:23;;;;;;;1.38;0.50;;;;;;;30.08;22.63;94765.34;5029307;28;20048;-47
2021/10/08 01:16:53;;;;;;;2.58;0.50;;;;;;;29.83;22.90;94762.13;5042826;28;20060;-45
2021/10/08 01:19:22;;;;;;;9.38;1.02;;;;;;;30.06;23.00;94769.63;5058619;28;20052;-47
2021/10/08 01:21:54;;;;;;;0.60;0.40;;;;;;;29.99;22.71;94777.75;5058761;28;20363;-46
2021/10/08 01:24:22;;;;;;;1.40;0.50;;;;;;;30.49;22.26;94777.25;5054780;28;20057;-49
2021/10/08 01:26:49;;;;;;;0.70;0.40;;;;;;;30.73;21.98;94770.03;5056481;28;20361;-46
2021/10/08 01:29:17;;;;;;;0.73;0.50;;;;;;;30.23;22.46;94776.75;5056361;28;20460;-46
2021/10/08 01:31:44;;;;;;;1.13;0.47;;;;;;;30.26;22.35;94775.19;5042141;28;20379;-46
2021/10/08 01:34:12;;;;;;;0.90;0.57;;;;;;;30.04;22.62;94783.50;5057433;28;20364;-46
2021/10/08 01:36:49;;;;;;;1.38;0.70;;;;;;;30.25;22.56;94787.16;5058439;28;20060;-47
2021/10/08 01:39:16;;;;;;;1.20;0.73;;;;;;;29.91;22.81;94765.50;5058359;28;20044;-49
2021/10/08 01:41:43;;;;;;;1.23;0.93;;;;;;;30.25;22.51;94752.84;5076045;28;20056;-47
2021/10/08 01:44:17;;;;;;;1.63;0.93;;;;;;;30.48;22.25;94751.44;5046934;28;20456;-47
2021/10/08 01:46:45;;;;;;;1.63;0.70;;;;;;;30.06;22.63;94756.91;5056081;28;20049;-46
2021/10/08 01:49:12;;;;;;;1.10;0.55;;;;;;;29.98;22.95;94755.44;5054962;28;20463;-48
2021/10/08 01:51:40;;;;;;;1.55;0.60;;;;;;;29.74;23.02;94772.59;5055910;28;20040;-47
2021/10/08 01:54:07;;;;;;;0.73;0.50;;;;;;;29.95;22.77;94766.25;5037872;28;20059;-48
2021/10/08 01:56:35;;;;;;;1.38;0.65;;;;;;;29.99;22.89;94767.75;5054908;28;20051;-50
2021/10/08 01:59:04;;;;;;;1.80;0.63;;;;;;;30.30;22.48;94762.44;5045234;28;20052;-57
2021/10/08 02:01:35;;;;;;;1.17;0.77;;;;;;;30.44;22.39;94762.25;5042223;28;20052;-47
2021/10/08 02:04:08;;;;;;;1.10;0.63;;;;;;;30.17;22.51;94762.16;5057448;28;20048;-47
2021/10/08 02:06:35;;;;;;;0.90;0.70;;;;;;;30.40;22.43;94780.41;5058012;28;20052;-48
2021/10/08 02:09:04;;;;;;;1.00;0.70;;;;;;;30.06;22.72;94783.88;5057795;28;20067;-47
2021/10/08 02:11:34;;;;;;;1.20;0.70;;;;;;;30.17;22.63;94778.34;5057876;28;20044;-46
2021/10/08 02:14:01;;;;;;;1.30;0.80;;;;;;;30.00;22.88;94771.97;5075257;28;20278;-49
2021/10/08 02:16:29;;;;;;;1.67;0.80;;;;;;;29.90;22.97;94772.81;5057962;28;20048;-47
2021/10/08 02:19:04;;;;;;;1.00;0.80;;;;;;;30.14;22.84;94756.81;5057418;28;20356;-48
2021/10/08 02:21:33;;;;;;;2.25;1.00;;;;;;;29.91;22.84;94762.81;5057808;28;20059;-47
2021/10/08 02:24:02;;;;;;;1.30;1.00;;;;;;;30.01;22.70;94764.66;5057331;28;20063;-47
2021/10/08 02:26:30;;;;;;;1.33;1.20;;;;;;;30.33;22.26;94764.31;5057606;28;20048;-47
2021/10/08 02:28:58;;;;;;;1.90;1.20;;;;;;;30.21;22.25;94752.13;5057411;28;20051;-48
2021/10/08 02:31:30;;;;;;;1.85;1.30;;;;;;;29.59;23.29;94760.41;5052932;28;20053;-46
2021/10/08 02:33:59;;;;;;;1.23;1.00;;;;;;;30.16;22.52;94766.03;5038412;28;20487;-47
2021/10/08 02:36:26;;;;;;;0.98;0.82;;;;;;;30.48;22.16;94757.59;5057165;28;20502;-46
2021/10/08 02:38:54;;;;;;;1.55;1.20;;;;;;;30.17;22.52;94766.81;5057108;28;20052;-45
2021/10/08 02:41:22;;;;;;;1.20;1.10;;;;;;;30.10;22.71;94761.50;5057118;28;20056;-46
2021/10/08 02:43:50;;;;;;;2.05;1.20;;;;;;;29.91;22.64;94758.19;5057463;28;20044;-47
2021/10/08 02:46:17;;;;;;;1.90;1.35;;;;;;;30.13;22.55;94760.69;5056655;28;20048;-46
2021/10/08 02:48:44;;;;;;;2.83;1.27;;;;;;;30.08;22.89;94754.56;5054879;28;20490;-47
2021/10/08 02:51:11;;;;;;;2.03;1.27;;;;;;;30.01;22.74;94746.53;5053466;28;20044;-47
2021/10/08 02:53:38;;;;;;;3.28;1.33;;;;;;;30.31;22.36;94753.94;5053671;28;20056;-47
2021/10/08 02:56:06;;;;;;;2.47;1.80;;;;;;;30.84;21.63;94744.44;5052348;28;20383;-47
2021/10/08 02:58:33;;;;;;;2.67;1.50;;;;;;;30.63;21.87;94745.47;5053423;28;20064;-47
2021/10/08 03:01:01;;;;;;;2.50;1.58;;;;;;;30.05;22.66;94763.47;5049606;28;20052;-48
2021/10/08 03:03:28;;;;;;;3.08;1.80;;;;;;;29.82;22.73;94763.28;5074193;28;20048;-49
2021/10/08 03:05:55;;;;;;;2.05;1.60;;;;;;;29.80;22.96;94762.91;5074250;28;20040;-47
2021/10/08 03:08:26;;;;;;;2.60;1.60;;;;;;;29.83;22.96;94764.03;5074473;28;20363;-47
2021/10/08 03:10:53;;;;;;;2.50;2.13;;;;;;;29.85;22.86;94767.88;5056680;28;20048;-47
2021/10/08 03:13:20;;;;;;;2.92;1.95;;;;;;;30.44;22.01;94754.16;5060880;28;20048;-48
2021/10/08 03:15:47;;;;;;;4.50;1.67;;;;;;;30.17;22.64;94756.78;5054362;28;20048;-48
2021/10/08 03:18:15;;;;;;;3.88;1.90;;;;;;;29.99;22.67;94756.19;5053550;28;20057;-49
2021/10/08 03:20:44;;;;;;;2.17;1.50;;;;;;;29.84;22.67;94765.56;5053510;28;20805;-47
2021/10/08 03:23:12;;;;;;;2.25;1.52;;;;;;;30.44;22.24;94759.56;5053189;28;20041;-47
2021/10/08 03:25:39;;;;;;;2.75;1.35;;;;;;;30.13;22.37;94755.28;5054142;28;20074;-47
2021/10/08 03:28:06;;;;;;;2.03;1.38;;;;;;;30.02;22.42;94755.38;5053341;28;20052;-46
2021/10/08 03:30:34;;;;;;;2.13;1.60;;;;;;;30.17;22.21;94745.22;5047432;28;20053;-49
2021/10/08 03:33:01;;;;;;;2.33;1.50;;;;;;;30.06;22.57;94753.44;5049166;28;20041;-46
2021/10/08 03:35:29;;;;;;;2.58;1.50;;;;;;;29.86;22.79;94750.53;5052842;28;20052;-46
2021/10/08 03:38:06;;;;;;;1.85;1.45;;;;;;;30.10;22.39;94745.31;5054077;28;20045;-47
2021/10/08 03:40:33;;;;;;;1.42;1.30;;;;;;;30.30;22.29;94746.25;5053826;28;20057;-47
2021/10/08 03:43:01;;;;;;;2.72;1.38;;;;;;;29.71;22.83;94733.00;5063573;28;20052;-48
2021/10/08 03:45:53;;;;;;;1.50;1.38;;;;;;;29.78;22.81;94735.63;5055785;28;20060;-48
2021/10/08 03:50:50;;;;;;;1.67;1.20;;;;;;;29.80;22.83;94744.06;5056240;28;20063;-47
2021/10/08 03:53:17;;;;;;;1.77;1.15;;;;;;;30.21;22.35;94759.47;5073617;28;20048;-46
2021/10/08 03:55:45;;;;;;;2.35;1.17;;;;;;;30.23;22.38;94757.13;5055779;28;20055;-47
2021/10/08 03:58:12;;;;;;;1.45;0.80;;;;;;;30.24;22.29;94756.72;5072944;28;20051;-46
2021/10/08 04:00:39;;;;;;;1.98;1.00;;;;;;;30.18;22.40;94754.84;5073334;28;20051;-48
2021/10/08 04:03:12;;;;;;;2.08;1.10;;;;;;;29.98;22.56;94766.22;5052147;28;20052;-47
2021/10/08 04:05:40;;;;;;;1.38;0.98;;;;;;;30.29;22.33;94771.69;5052324;28;20052;-47
2021/10/08 04:08:07;;;;;;;1.90;1.00;;;;;;;30.30;22.54;94770.53;5052709;28;20368;-46
2021/10/08 04:10:35;;;;;;;1.80;0.90;;;;;;;30.12;22.41;94776.09;5052429;28;20052;-47
2021/10/08 04:13:02;;;;;;;1.30;0.90;;;;;;;30.36;22.20;94766.22;5052499;28;20459;-47
2021/10/08 04:15:30;;;;;;;1.10;0.80;;;;;;;30.41;22.10;94773.09;5052407;28;20045;-47
2021/10/08 04:17:59;;;;;;;2.15;1.10;;;;;;;30.37;22.40;94771.19;5052644;28;20102;-48
2021/10/08 04:20:27;;;;;;;1.73;1.20;;;;;;;29.92;22.99;94770.50;5052464;28;20063;-47
2021/10/08 04:22:54;;;;;;;1.13;0.80;;;;;;;30.11;22.63;94781.91;5055292;28;20052;-49
2021/10/08 04:25:21;;;;;;;2.25;0.80;;;;;;;29.80;23.00;94770.25;5062597;28;20048;-50
2021/10/08 04:27:48;;;;;;;1.35;0.80;;;;;;;30.10;22.69;94759.56;5077358;28;20045;-48
2021/10/08 04:30:15;;;;;;;1.15;0.65;;;;;;;30.37;22.27;94765.03;5059346;28;20044;-47
2021/10/08 04:32:45;;;;;;;1.10;0.70;;;;;;;30.22;22.50;94769.06;5045308;28;20045;-49
2021/10/08 04:35:12;;;;;;;3.72;1.08;;;;;;;29.74;23.04;94772.59;5044969;28;20063;-46
2021/10/08 04:37:40;;;;;;;1.65;0.80;;;;;;;29.66;23.25;94771.88;5059534;28;20047;-47
2021/10/08 04:40:08;;;;;;;3.10;1.20;;;;;;;29.76;22.96;94775.66;5059445;28;20048;-48
2021/10/08 04:42:36;;;;;;;3.47;1.20;;;;;;;29.95;22.86;94777.81;5059448;28;20711;-45
2021/10/08 04:45:04;;;;;;;1.50;1.00;;;;;;;30.27;22.43;94779.41;5059109;28;20059;-49
2021/10/08 04:47:32;;;;;;;2.53;1.25;;;;;;;29.73;23.05;94777.22;5059257;28;20044;-47
2021/10/08 04:50:01;;;;;;;2.50;1.20;;;;;;;29.75;23.07;94779.53;5059219;28;20055;-45
2021/10/08 04:52:31;;;;;;;5.13;1.33;;;;;;;30.04;22.64;94775.41;5059274;28;20045;-45
2021/10/08 04:54:58;;;;;;;2.75;1.10;;;;;;;29.84;22.94;94765.56;5058928;28;20060;-47
2021/10/08 04:57:26;;;;;;;2.92;1.10;;;;;;;29.62;23.11;94770.38;5046094;28;20041;-45
2021/10/08 04:59:54;;;;;;;2.33;1.00;;;;;;;30.26;22.23;94757.09;5041868;28;20363;-46
2021/10/08 05:02:21;;;;;;;3.03;1.35;;;;;;;29.49;23.18;94763.97;5068906;28;20053;-46
2021/10/08 05:04:48;;;;;;;2.15;1.00;;;;;;;29.57;23.24;94746.59;5047704;28;20045;-48
2021/10/08 05:07:16;;;;;;;2.47;1.08;;;;;;;29.97;22.77;94759.28;5032976;28;20072;-48
2021/10/08 05:09:43;;;;;;;1.30;0.90;;;;;;;29.72;22.78;94751.47;5048526;28;20044;-46
2021/10/08 05:12:10;;;;;;;1.60;0.95;;;;;;;29.91;22.85;94750.09;5067928;28;20048;-47
2021/10/08 05:14:37;;;;;;;1.92;0.88;;;;;;;29.90;22.84;94753.19;5049299;28;20044;-47
2021/10/08 05:17:04;;;;;;;2.95;1.00;;;;;;;30.08;22.71;94754.56;5050292;28;20067;-48
2021/10/08 05:19:32;;;;;;;2.33;1.20;;;;;;;29.26;23.55;94743.75;5044549;28;20044;-46
2021/10/08 05:22:08;;;;;;;1.92;1.30;;;;;;;30.47;22.63;94758.78;5052787;28;20053;-47
2021/10/08 05:24:35;;;;;;;7.93;1.33;;;;;;;31.67;21.21;94766.31;5058447;28;20049;-45
2021/10/08 05:27:02;;;;;;;2.08;1.30;;;;;;;32.58;20.30;94769.72;5064759;28;20434;-46
2021/10/08 05:29:30;;;;;;;2.85;1.30;;;;;;;33.10;19.36;94754.31;5072964;28;20358;-47
2021/10/08 05:31:57;;;;;;;2.22;1.40;;;;;;;33.63;19.17;94759.69;5040139;28;20055;-45
2021/10/08 05:34:24;;;;;;;2.53;1.70;;;;;;;34.08;18.68;94756.97;5070101;28;20049;-59
2021/10/08 05:36:51;;;;;;;3.90;1.58;;;;;;;34.54;18.08;94768.53;5051395;28;20048;-50
2021/10/08 05:39:21;;;;;;;2.08;1.30;;;;;;;34.23;18.44;94777.13;5038318;28;20376;-67
2021/10/08 05:41:49;;;;;;;3.17;1.70;;;;;;;32.97;19.49;94777.81;5022065;28;20048;-65
2021/10/08 05:44:16;;;;;;;1.65;1.33;;;;;;;31.64;21.04;94782.59;5044812;28;20045;-64
2021/10/08 05:46:45;;;;;;;5.07;1.88;;;;;;;31.57;21.03;94772.69;5054139;28;20057;-55
2021/10/08 05:49:12;;;;;;;2.92;1.80;;;;;;;33.03;19.58;94765.28;5056059;28;20395;-47
2021/10/08 05:51:39;;;;;;;2.70;1.60;;;;;;;33.70;18.68;94767.63;5054800;28;20455;-45
2021/10/08 05:54:06;;;;;;;3.63;1.70;;;;;;;34.30;18.37;94751.72;5046261;28;20055;-47
2021/10/08 05:56:33;;;;;;;2.85;1.70;;;;;;;34.46;18.21;94769.94;5058656;28;20045;-47
2021/10/08 05:59:01;;;;;;;2.92;1.35;;;;;;;34.95;17.70;94764.28;5056170;28;20048;-51
2021/10/08 06:01:29;;;;;;;1.88;1.60;;;;;;;34.93;17.49;94762.78;5070039;28;20068;-48
2021/10/08 06:03:56;;;;;;;3.83;1.50;;;;;;;33.46;19.19;94764.34;5057650;28;20051;-44
2021/10/08 06:06:24;;;;;;;2.83;1.17;;;;;;;32.61;20.00;94758.06;5037853;28;20394;-50
2021/10/08 06:08:53;;;;;;;2.60;1.50;;;;;;;30.30;22.14;94755.09;5047210;28;20048;-49
2021/10/08 06:11:21;;;;;;;4.53;1.23;;;;;;;31.36;21.04;94759.50;5055664;28;20040;-52
2021/10/08 06:13:49;;;;;;;2.15;1.42;;;;;;;31.55;21.09;94753.41;5029936;28;20378;-48
2021/10/08 06:16:16;;;;;;;2.08;1.15;;;;;;;31.10;21.27;94761.78;5056207;28;20356;-50
2021/10/08 06:18:44;;;;;;;1.90;1.40;;;;;;;30.95;21.73;94763.16;5051690;28;20068;-52
2021/10/08 06:21:11;;;;;;;4.15;1.33;;;;;;;31.20;21.80;94758.19;5050909;28;20368;-49
2021/10/08 06:23:38;;;;;;;2.70;1.50;;;;;;;31.47;21.45;94760.09;5037545;28;20045;-50
2021/10/08 06:26:06;;;;;;;3.63;1.90;;;;;;;31.51;21.63;94766.22;5036632;28;20060;-44
2021/10/08 06:28:35;;;;;;;3.20;1.50;;;;;;;31.37;21.73;94769.13;5055229;28;20064;-45
2021/10/08 06:31:03;;;;;;;2.53;1.20;;;;;;;31.47;21.95;94765.50;5046074;28;20052;-45
2021/10/08 06:33:34;;;;;;;2.65;1.30;;;;;;;31.69;21.42;94772.06;5043154;28;20075;-46
2021/10/08 06:36:01;;;;;;;1.85;1.30;;;;;;;31.16;22.06;94772.88;5057429;28;20055;-47
2021/10/08 06:38:28;;;;;;;2.17;1.20;;;;;;;30.49;22.60;94775.31;5057431;28;20044;-51
2021/10/08 06:40:55;;;;;;;2.42;1.60;;;;;;;32.49;20.94;94773.75;5064215;28;20063;-46
2021/10/08 06:43:23;;;;;;;2.15;1.38;;;;;;;31.52;21.97;94781.25;5037777;28;20467;-48
2021/10/08 06:46:04;;;;;;;2.47;1.33;;;;;;;31.49;21.56;94785.53;5042461;28;20523;-47
2021/10/08 06:48:31;;;;;;;1.85;1.30;;;;;;;31.40;22.00;94773.72;5037402;28;20075;-46
2021/10/08 06:50:59;;;;;;;5.97;1.35;;;;;;;31.50;21.62;94789.78;5037190;28;20053;-44
2021/10/08 06:53:26;;;;;;;3.33;1.50;;;;;;;31.62;21.82;94780.31;5054907;28;20040;-50
2021/10/08 06:55:54;;;;;;;4.28;1.40;;;;;;;31.37;21.72;94786.09;5054016;28;20052;-47
2021/10/08 06:58:43;;;;;;;1.70;1.27;;;;;;;31.25;21.92;94787.44;5054751;28;20049;-46
2021/10/08 07:01:12;;;;;;;1.92;1.20;;;;;;;31.29;21.81;94790.84;5048909;28;20075;-46
2021/10/08 07:03:39;;;;;;;3.58;1.30;;;;;;;31.49;21.62;94779.34;5053323;28;20055;-46
2021/10/08 07:06:07;;;;;;;2.17;1.30;;;;;;;30.94;22.43;94780.53;5058406;28;20447;-47
2021/10/08 07:08:34;;;;;;;3.58;1.42;;;;;;;30.89;22.04;94779.06;5074510;28;20052;-47
2021/10/08 07:11:02;;;;;;;2.33;1.10;;;;;;;30.84;22.29;94784.13;5062296;28;20063;-48
2021/10/08 07:13:29;;;;;;;1.80;1.00;;;;;;;30.86;22.14;94784.50;5054389;28;20383;-46
2021/10/08 07:15:58;;;;;;;1.40;0.88;;;;;;;30.83;22.19;94796.09;5054403;28;20060;-46
2021/10/08 07:18:33;;;;;;;1.42;1.17;;;;;;;30.75;21.97;94794.69;5054223;28;20444;-48
2021/10/08 07:21:02;;;;;;;1.48;0.80;;;;;;;31.01;21.72;94802.03;5064634;28;20051;-46
2021/10/08 07:23:29;;;;;;;2.10;1.00;;;;;;;31.03;21.91;94810.50;5074011;28;20355;-46
2021/10/08 07:25:56;;;;;;;1.45;1.02;;;;;;;30.64;22.31;94817.16;5056308;28;20378;-47
2021/10/08 07:28:24;;;;;;;1.98;0.93;;;;;;;30.84;21.77;94828.09;5074109;28;20048;-48
2021/10/08 07:30:51;;;;;;;1.77;1.15;;;;;;;30.93;21.85;94832.97;5064865;28;20053;-48
2021/10/08 07:33:18;;;;;;;2.00;1.00;;;;;;;30.61;21.94;94847.63;5053844;28;20045;-49
2021/10/08 07:35:45;;;;;;;1.30;0.90;;;;;;;30.99;21.42;94831.38;5054412;28;20048;-47
2021/10/08 07:38:12;;;;;;;1.20;1.00;;;;;;;31.14;21.58;94832.69;5053904;28;20068;-49
2021/10/08 07:40:40;;;;;;;1.88;1.20;;;;;;;31.28;21.19;94831.78;5053851;28;20379;-50
2021/10/08 07:43:07;;;;;;;2.05;1.10;;;;;;;31.02;21.68;94841.34;5053660;28;20443;-47
2021/10/08 07:45:35;;;;;;;1.83;1.15;;;;;;;31.72;20.98;94849.66;5058008;28;20053;-47
2021/10/08 07:48:03;;;;;;;3.60;1.55;;;;;;;31.51;21.17;94866.19;5072639;28;20056;-46
2021/10/08 07:50:30;;;;;;;2.10;1.58;;;;;;;31.84;20.99;94878.81;5070904;28;20047;-48
2021/10/08 07:52:57;;;;;;;4.15;1.73;;;;;;;30.59;22.09;94879.63;5067233;28;20042;-46
2021/10/08 07:55:26;;;;;;;2.25;1.50;;;;;;;30.34;22.50;94892.59;5067536;28;20447;-61
2021/10/08 07:57:53;;;;;;;2.08;1.50;;;;;;;31.05;21.93;94894.53;5073314;28;20048;-47
2021/10/08 08:00:21;;;;;;;2.72;2.03;;;;;;;32.90;19.76;94907.91;5063303;28;20059;-46
2021/10/08 08:02:48;;;;;;;2.08;1.58;;;;;;;32.06;20.47;94900.09;5073574;28;20055;-47
2021/10/08 08:05:15;;;;;;;6.43;2.10;;;;;;;33.54;19.53;94893.03;5062485;28;20052;-46
2021/10/08 08:07:42;;;;;;;3.53;2.22;;;;;;;34.00;19.31;94904.81;5053772;28;20060;-47
2021/10/08 08:10:15;;;;;;;3.85;2.10;;;;;;;33.40;19.52;94906.91;5053474;28;20703;-46
2021/10/08 08:12:42;;;;;;;2.28;1.60;;;;;;;32.04;20.84;94913.28;5053764;28;20045;-46
2021/10/08 08:15:09;;;;;;;2.28;1.75;;;;;;;32.13;20.67;94916.19;5069448;28;20059;-46
2021/10/08 08:17:36;;;;;;;2.92;2.13;;;;;;;31.89;20.69;94908.06;5052563;28;20368;-47
2021/10/08 08:20:05;;;;;;;2.55;2.03;;;;;;;32.17;20.27;94908.78;5054171;28;20060;-46
2021/10/08 08:22:32;;;;;;;3.78;2.42;;;;;;;32.08;20.49;94897.75;5067751;28;20052;-52
2021/10/08 08:24:59;;;;;;;2.95;2.10;;;;;;;32.21;20.70;94906.78;5067679;28;20055;-46
2021/10/08 08:27:26;;;;;;;4.45;1.88;;;;;;;32.03;20.61;94906.34;5074029;28;20045;-53
2021/10/08 08:29:54;;;;;;;3.88;1.90;;;;;;;32.11;20.48;94913.16;5073411;28;20052;-47
2021/10/08 08:32:21;;;;;;;3.40;2.20;;;;;;;32.64;20.25;94922.31;5072916;28;20483;-48
2021/10/08 08:34:48;;;;;;;2.20;1.98;;;;;;;31.54;21.31;94916.69;5073291;28;20056;-58
2021/10/08 08:37:15;;;;;;;2.85;1.80;;;;;;;31.34;21.28;94911.16;5073827;28;20040;-47
2021/10/08 08:39:45;;;;;;;2.55;1.63;;;;;;;31.62;21.24;94915.41;5069959;28;20060;-52
2021/10/08 08:42:21;;;;;;;1.70;1.58;;;;;;;32.00;20.59;94934.16;5053250;28;20543;-46
2021/10/08 08:44:48;;;;;;;8.32;2.55;;;;;;;33.05;19.81;94930.84;5053002;28;20052;-53
2021/10/08 08:47:20;;;;;;;5.25;2.30;;;;;;;32.57;20.36;94942.16;5053367;28;20072;-47
2021/10/08 08:49:48;;;;;;;3.97;2.22;;;;;;;31.77;21.03;94932.97;5053115;28;20053;-50
2021/10/08 08:52:16;;;;;;;7.60;3.38;;;;;;;31.97;20.56;94945.81;5053296;28;20060;-46
2021/10/08 08:54:45;;;;;;;3.85;3.13;;;;;;;31.81;20.65;94933.69;5064211;28;20055;-47
2021/10/08 08:57:14;;;;;;;5.20;3.75;;;;;;;32.24;20.09;94938.41;5073335;28;20045;-51
2021/10/08 09:00:01;;;;;;;5.10;3.83;;;;;;;32.42;19.85;94938.91;5072809;28;20439;-50
2021/10/08 09:02:29;;;;;;;3.78;3.25;;;;;;;31.94;20.39;94930.41;5051665;28;20065;-47
2021/10/08 09:04:56;;;;;;;6.80;3.95;;;;;;;32.29;20.43;94921.75;5053019;28;20053;-47
2021/10/08 09:07:29;;;;;;;8.25;4.18;;;;;;;32.55;20.65;94911.28;5054020;28;20045;-51
2021/10/08 09:10:13;;;;;;;9.43;5.47;;;;;;;34.24;18.97;94908.84;5056937;28;20056;-56
2021/10/08 09:12:41;;;;;;;4.70;3.20;;;;;;;32.14;20.19;94896.09;5056701;28;20447;-49
2021/10/08 09:15:09;;;;;;;6.18;3.10;;;;;;;32.52;19.77;94893.91;5067709;28;20730;-45
2021/10/08 09:17:38;;;;;;;5.32;3.08;;;;;;;32.25;20.23;94891.25;5056739;28;20060;-45
2021/10/08 09:20:16;;;;;;;5.53;3.30;;;;;;;32.01;20.80;94881.63;5056423;28;20060;-47
2021/10/08 09:22:46;;;;;;;4.40;3.35;;;;;;;32.28;20.48;94890.50;5056489;28;20041;-49
2021/10/08 09:25:19;;;;;;;4.45;3.40;;;;;;;31.89;20.95;94889.16;5070293;28;20379;-47
2021/10/08 09:28:02;;;;;;;4.97;3.22;;;;;;;31.44;21.40;94883.22;5076423;28;20045;-45
2021/10/08 09:30:41;;;;;;;4.72;3.05;;;;;;;31.78;20.96;94888.56;5064755;28;20451;-49
2021/10/08 09:33:12;;;;;;;4.35;2.40;;;;;;;31.35;21.20;94890.31;5055991;28;20045;-46
2021/10/08 09:35:40;;;;;;;2.88;2.30;;;;;;;31.46;20.88;94901.72;5056149;28;20064;-62
2021/10/08 09:38:13;;;;;;;3.80;2.40;;;;;;;32.00;20.47;94904.44;5056716;28;20052;-46
2021/10/08 09:41:02;;;;;;;3.90;2.47;;;;;;;31.85;20.33;94901.19;5055005;28;20061;-48
2021/10/08 09:43:30;;;;;;;3.72;2.70;;;;;;;31.99;20.28;94911.78;5054775;28;20045;-51
2021/10/08 09:46:00;;;;;;;3.72;2.40;;;;;;;32.10;19.96;94911.63;5055831;28;20049;-47
2021/10/08 09:48:41;;;;;;;3.33;2.55;;;;;;;31.52;20.79;94908.22;5056026;28;20051;-48
2021/10/08 09:51:14;;;;;;;4.53;3.15;;;;;;;31.09;21.06;94906.06;5056260;28;20049;-47
2021/10/08 09:53:47;;;;;;;6.28;4.53;;;;;;;32.04;20.08;94897.03;5056233;28;20056;-46
2021/10/08 09:56:31;;;;;;;6.22;4.05;;;;;;;31.46;20.77;94896.31;5055717;28;20052;-55
2021/10/08 09:59:00;;;;;;;4.70;3.42;;;;;;;32.10;20.40;94895.41;5068882;28;20048;-46
2021/10/08 10:01:32;;;;;;;6.07;3.90;;;;;;;31.78;20.22;94904.78;5075021;28;20064;-47
2021/10/08 10:03:59;;;;;;;5.47;3.83;;;;;;;31.79;20.59;94909.00;5075688;28;20052;-47
2021/10/08 10:06:27;;;;;;;10.50;8.15;;;;;;;31.44;20.61;94904.06;5074513;28;20071;-49
2021/10/08 10:08:54;;;;;;;11.02;9.20;;;;;;;31.65;20.74;94909.19;5075616;28;20048;-48
2021/10/08 10:11:24;;;;;;;7.45;6.07;;;;;;;31.51;20.49;94898.59;5075709;28;20045;-46
2021/10/08 10:14:00;;;;;;;6.80;5.32;;;;;;;31.40;20.45;94897.97;5075544;28;20040;-46
2021/10/08 10:16:30;;;;;;;5.03;3.80;;;;;;;31.47;20.42;94881.66;5068783;28;20048;-47
2021/10/08 10:18:58;;;;;;;6.15;4.53;;;;;;;31.90;20.11;94871.00;5075115;28;20052;-46
2021/10/08 10:21:27;;;;;;;7.78;6.07;;;;;;;31.39;20.56;94864.03;5075363;28;20443;-46
2021/10/08 10:23:59;;;;;;;6.47;4.88;;;;;;;31.29;20.61;94858.38;5075326;28;20348;-46
2021/10/08 10:26:28;;;;;;;7.72;5.97;;;;;;;32.08;20.19;94862.59;5075097;28;20051;-47
2021/10/08 10:28:59;;;;;;;2.92;2.50;;;;;;;31.43;20.52;94864.72;5062777;28;20056;-56
2021/10/08 10:31:26;;;;;;;4.70;3.35;;;;;;;32.31;19.67;94862.59;5054955;28;20052;-45
2021/10/08 10:34:01;;;;;;;3.85;2.70;;;;;;;31.76;20.54;94855.78;5051015;28;20376;-51
2021/10/08 10:36:31;;;;;;;4.28;2.78;;;;;;;31.65;20.57;94855.13;5068028;28;20047;-46
2021/10/08 10:39:37;;;;;;;5.03;3.13;;;;;;;31.97;20.38;94832.25;5062654;28;20045;-46
2021/10/08 10:42:13;;;;;;;4.38;3.70;;;;;;;32.35;19.94;94819.25;5054981;28;20044;-47
2021/10/08 10:45:24;;;;;;;4.10;3.50;;;;;;;32.07;20.40;94815.88;5013333;28;20057;-51
2021/10/08 10:48:16;;;;;;;4.18;3.78;;;;;;;31.81;20.54;94825.59;4997945;28;20057;-54
2021/10/08 10:51:18;;;;;;;3.60;3.00;;;;;;;31.50;20.92;94840.34;5013247;28;20368;-58
2021/10/08 10:53:50;;;;;;;4.30;3.80;;;;;;;32.14;20.33;94823.09;5012623;28;20045;-49
2021/10/08 10:56:38;;;;;;;3.75;3.20;;;;;;;31.79;20.22;94833.34;5002577;28;20061;-50
2021/10/08 10:59:23;;;;;;;3.72;2.67;;;;;;;30.71;21.59;94831.72;5005320;28;20408;-46
2021/10/08 11:02:09;;;;;;;3.97;2.90;;;;;;;31.09;21.16;94830.47;5012100;28;20369;-53
2021/10/08 11:04:38;;;;;;;3.53;2.58;;;;;;;31.37;20.87;94840.13;5010377;28;20089;-50
2021/10/08 11:07:16;;;;;;;4.32;2.90;;;;;;;31.46;20.96;94836.91;4992770;28;20046;-47
2021/10/08 11:10:03;;;;;;;3.42;2.70;;;;;;;31.44;20.73;94833.84;5000410;28;20054;-47
2021/10/08 11:12:39;;;;;;;3.92;2.70;;;;;;;31.19;21.09;94840.38;4992787;28;20046;-47
2021/10/08 11:15:16;;;;;;;3.83;2.90;;;;;;;30.64;21.56;94833.31;4998528;28;21339;-48
2021/10/08 11:17:53;;;;;;;2.70;2.10;;;;;;;31.09;20.88;94835.09;5053948;28;20056;-47
2021/10/08 11:20:29;;;;;;;2.35;1.63;;;;;;;30.63;21.13;94831.81;5034345;28;20054;-46
2021/10/08 11:23:04;;;;;;;4.03;1.70;;;;;;;30.88;20.83;94847.69;5034417;28;20045;-47
2021/10/08 11:25:45;;;;;;;4.20;1.77;;;;;;;30.64;21.10;94838.72;5037680;28;20053;-52
2021/10/08 11:28:23;;;;;;;3.15;1.90;;;;;;;30.28;21.59;94842.97;5053918;28;20063;-56
2021/10/08 11:30:50;;;;;;;1.92;1.50;;;;;;;30.90;21.19;94849.97;5052378;28;20048;-61
2021/10/08 11:33:17;;;;;;;2.17;1.48;;;;;;;30.60;21.41;94843.41;5053941;28;20049;-54
2021/10/08 11:35:46;;;;;;;1.90;1.50;;;;;;;30.62;21.36;94846.47;5051909;28;20044;-60
2021/10/08 11:38:18;;;;;;;10.25;9.27;;;;;;;30.72;21.53;94841.38;5053762;28;20360;-55
2021/10/08 11:40:46;;;;;;;3.58;2.83;;;;;;;30.56;21.42;94864.22;5054093;28;20049;-51
2021/10/08 11:43:33;;;;;;;3.22;1.80;;;;;;;30.69;21.18;94851.00;5040197;28;20072;-56
2021/10/08 11:48:49;;;;;;;3.72;1.42;;;;;;;30.85;21.28;94850.44;5052346;28;20459;-53
2021/10/08 11:51:18;;;;;;;3.78;1.60;;;;;;;30.57;21.74;94849.56;5053461;28;20067;-47